sensor_id;sensor_type;location;lat;lon;timestamp;temperature;humidity
38910;DHT22;24676;51.360;12.354;2023-06-24T00:00:20;15.70;99.90
38910;DHT22;24676;51.360;12.354;2023-06-24T00:03:04;15.60;99.90
38910;DHT22;24676;51.360;12.354;2023-06-24T00:05:51;15.60;99.90
38910;DHT22;24676;51.360;12.354;2023-06-24T00:08:36;15.60;99.90
38910;DHT22;24676;51.360;12.354;2023-06-24T00:11:20;15.50;99.90
38910;DHT22;24676;51.360;12.354;2023-06-24T00:14:04;15.40;99.90
38910;DHT22;24676;51.360;12.354;2023-06-24T00:16:51;15.40;99.90
38910;DHT22;24676;51.360;12.354;2023-06-24T00:19:35;15.40;99.90
38910;DHT22;24676;51.360;12.354;2023-06-24T00:22:19;15.40;99.90
38910;DHT22;24676;51.360;12.354;2023-06-24T00:25:03;15.40;99.90
38910;DHT22;24676;51.360;12.354;2023-06-24T00:27:49;15.50;99.90
38910;DHT22;24676;51.360;12.354;2023-06-24T00:30:33;15.40;99.90
38910;DHT22;24676;51.360;12.354;2023-06-24T00:33:18;15.40;99.90
38910;DHT22;24676;51.360;12.354;2023-06-24T00:36:03;15.30;99.90
38910;DHT22;24676;51.360;12.354;2023-06-24T00:38:48;15.30;99.90
38910;DHT22;24676;51.360;12.354;2023-06-24T00:41:34;15.20;99.90
38910;DHT22;24676;51.360;12.354;2023-06-24T00:44:18;15.20;99.90
38910;DHT22;24676;51.360;12.354;2023-06-24T00:47:04;15.10;99.90
38910;DHT22;24676;51.360;12.354;2023-06-24T00:49:48;15.10;99.90
38910;DHT22;24676;51.360;12.354;2023-06-24T00:52:32;15.10;99.90
38910;DHT22;24676;51.360;12.354;2023-06-24T00:55:17;15.10;99.90
38910;DHT22;24676;51.360;12.354;2023-06-24T00:58:04;15.10;99.90
38910;DHT22;24676;51.360;12.354;2023-06-24T01:00:49;15.10;99.90
38910;DHT22;24676;51.360;12.354;2023-06-24T01:03:41;15.10;99.90
38910;DHT22;24676;51.360;12.354;2023-06-24T01:06:26;15.00;99.90
38910;DHT22;24676;51.360;12.354;2023-06-24T01:09:13;15.00;99.90
38910;DHT22;24676;51.360;12.354;2023-06-24T01:11:57;15.00;99.90
38910;DHT22;24676;51.360;12.354;2023-06-24T01:14:41;15.00;99.90
38910;DHT22;24676;51.360;12.354;2023-06-24T01:17:45;15.00;99.90
38910;DHT22;24676;51.360;12.354;2023-06-24T01:23:54;14.90;99.90
38910;DHT22;24676;51.360;12.354;2023-06-24T01:30:12;14.80;99.90
38910;DHT22;24676;51.360;12.354;2023-06-24T01:33:09;14.80;99.90
38910;DHT22;24676;51.360;12.354;2023-06-24T01:35:54;14.70;99.90
38910;DHT22;24676;51.360;12.354;2023-06-24T01:38:46;14.70;99.90
38910;DHT22;24676;51.360;12.354;2023-06-24T01:41:34;14.70;99.90
38910;DHT22;24676;51.360;12.354;2023-06-24T01:44:20;14.70;99.90
38910;DHT22;24676;51.360;12.354;2023-06-24T01:47:06;14.60;99.90
38910;DHT22;24676;51.360;12.354;2023-06-24T01:49:54;14.60;99.90
38910;DHT22;24676;51.360;12.354;2023-06-24T01:52:43;14.50;99.90
38910;DHT22;24676;51.360;12.354;2023-06-24T01:55:29;14.50;99.90
38910;DHT22;24676;51.360;12.354;2023-06-24T01:58:17;14.40;99.90
38910;DHT22;24676;51.360;12.354;2023-06-24T02:01:03;14.50;99.90
38910;DHT22;24676;51.360;12.354;2023-06-24T02:03:48;14.50;99.90
38910;DHT22;24676;51.360;12.354;2023-06-24T02:06:34;14.50;99.90
38910;DHT22;24676;51.360;12.354;2023-06-24T02:09:19;14.50;99.90
38910;DHT22;24676;51.360;12.354;2023-06-24T02:12:04;14.50;99.90
38910;DHT22;24676;51.360;12.354;2023-06-24T02:14:51;14.40;99.90
38910;DHT22;24676;51.360;12.354;2023-06-24T02:17:37;14.40;99.90
38910;DHT22;24676;51.360;12.354;2023-06-24T02:20:23;14.40;99.90
38910;DHT22;24676;51.360;12.354;2023-06-24T02:23:11;14.40;99.90
38910;DHT22;24676;51.360;12.354;2023-06-24T02:25:57;14.40;99.90
38910;DHT22;24676;51.360;12.354;2023-06-24T02:28:42;14.40;99.90
38910;DHT22;24676;51.360;12.354;2023-06-24T02:31:27;14.30;99.90
38910;DHT22;24676;51.360;12.354;2023-06-24T02:34:11;14.20;99.90
38910;DHT22;24676;51.360;12.354;2023-06-24T02:36:56;14.20;99.90
38910;DHT22;24676;51.360;12.354;2023-06-24T02:39:40;14.20;99.90
38910;DHT22;24676;51.360;12.354;2023-06-24T02:42:28;14.10;99.90
38910;DHT22;24676;51.360;12.354;2023-06-24T02:45:12;14.10;99.90
38910;DHT22;24676;51.360;12.354;2023-06-24T02:47:57;14.10;99.90
38910;DHT22;24676;51.360;12.354;2023-06-24T02:50:42;14.10;99.90
38910;DHT22;24676;51.360;12.354;2023-06-24T02:53:28;14.10;99.90
38910;DHT22;24676;51.360;12.354;2023-06-24T02:56:13;14.00;99.90
38910;DHT22;24676;51.360;12.354;2023-06-24T02:58:58;14.00;99.90
38910;DHT22;24676;51.360;12.354;2023-06-24T03:01:42;13.90;99.90
38910;DHT22;24676;51.360;12.354;2023-06-24T03:04:29;13.90;99.90
38910;DHT22;24676;51.360;12.354;2023-06-24T03:07:14;13.90;99.90
38910;DHT22;24676;51.360;12.354;2023-06-24T03:09:59;14.00;99.90
38910;DHT22;24676;51.360;12.354;2023-06-24T03:12:43;14.00;99.90
38910;DHT22;24676;51.360;12.354;2023-06-24T03:15:27;14.00;99.90
38910;DHT22;24676;51.360;12.354;2023-06-24T03:18:12;14.00;99.90
38910;DHT22;24676;51.360;12.354;2023-06-24T03:20:56;14.10;99.90
38910;DHT22;24676;51.360;12.354;2023-06-24T03:23:41;14.10;99.90
38910;DHT22;24676;51.360;12.354;2023-06-24T03:26:31;14.00;99.90
38910;DHT22;24676;51.360;12.354;2023-06-24T03:29:16;14.10;99.90
38910;DHT22;24676;51.360;12.354;2023-06-24T03:32:00;14.10;99.90
38910;DHT22;24676;51.360;12.354;2023-06-24T03:34:45;14.20;99.90
38910;DHT22;24676;51.360;12.354;2023-06-24T03:37:29;14.20;99.90
38910;DHT22;24676;51.360;12.354;2023-06-24T03:40:13;14.10;99.90
38910;DHT22;24676;51.360;12.354;2023-06-24T03:42:57;14.10;99.90
38910;DHT22;24676;51.360;12.354;2023-06-24T03:45:41;14.10;99.90
38910;DHT22;24676;51.360;12.354;2023-06-24T03:48:26;14.20;99.90
38910;DHT22;24676;51.360;12.354;2023-06-24T03:51:10;14.20;99.90
38910;DHT22;24676;51.360;12.354;2023-06-24T03:53:54;14.20;99.90
38910;DHT22;24676;51.360;12.354;2023-06-24T03:56:39;14.20;99.90
38910;DHT22;24676;51.360;12.354;2023-06-24T03:59:23;14.30;99.90
38910;DHT22;24676;51.360;12.354;2023-06-24T04:02:07;14.30;99.90
38910;DHT22;24676;51.360;12.354;2023-06-24T04:04:54;14.30;99.90
38910;DHT22;24676;51.360;12.354;2023-06-24T04:07:40;14.40;99.90
38910;DHT22;24676;51.360;12.354;2023-06-24T04:10:24;14.40;99.90
38910;DHT22;24676;51.360;12.354;2023-06-24T04:13:08;14.40;99.90
38910;DHT22;24676;51.360;12.354;2023-06-24T04:15:52;14.50;99.90
38910;DHT22;24676;51.360;12.354;2023-06-24T04:18:37;14.60;99.90
38910;DHT22;24676;51.360;12.354;2023-06-24T04:21:23;15.20;99.90
38910;DHT22;24676;51.360;12.354;2023-06-24T04:24:07;15.90;99.90
38910;DHT22;24676;51.360;12.354;2023-06-24T04:26:51;16.60;99.90
38910;DHT22;24676;51.360;12.354;2023-06-24T04:29:36;17.10;99.90
38910;DHT22;24676;51.360;12.354;2023-06-24T04:32:20;17.60;99.90
38910;DHT22;24676;51.360;12.354;2023-06-24T04:35:04;18.10;99.90
38910;DHT22;24676;51.360;12.354;2023-06-24T04:37:48;18.80;99.90
38910;DHT22;24676;51.360;12.354;2023-06-24T04:40:35;19.70;99.90
38910;DHT22;24676;51.360;12.354;2023-06-24T04:43:20;20.30;99.90
38910;DHT22;24676;51.360;12.354;2023-06-24T04:46:04;20.90;99.90
38910;DHT22;24676;51.360;12.354;2023-06-24T04:48:48;21.70;99.90
38910;DHT22;24676;51.360;12.354;2023-06-24T04:51:32;22.20;99.90
38910;DHT22;24676;51.360;12.354;2023-06-24T04:54:17;22.90;99.90
38910;DHT22;24676;51.360;12.354;2023-06-24T04:57:01;23.60;99.90
38910;DHT22;24676;51.360;12.354;2023-06-24T04:59:45;24.10;96.90
38910;DHT22;24676;51.360;12.354;2023-06-24T05:02:30;24.20;92.70
38910;DHT22;24676;51.360;12.354;2023-06-24T05:05:14;24.80;91.80
38910;DHT22;24676;51.360;12.354;2023-06-24T05:07:58;25.20;84.80
38910;DHT22;24676;51.360;12.354;2023-06-24T05:10:42;25.60;79.10
38910;DHT22;24676;51.360;12.354;2023-06-24T05:13:27;25.70;76.10
38910;DHT22;24676;51.360;12.354;2023-06-24T05:16:11;26.20;71.30
38910;DHT22;24676;51.360;12.354;2023-06-24T05:18:56;26.70;67.90
38910;DHT22;24676;51.360;12.354;2023-06-24T05:21:40;27.20;65.50
38910;DHT22;24676;51.360;12.354;2023-06-24T05:24:25;27.80;60.50
38910;DHT22;24676;51.360;12.354;2023-06-24T05:27:09;28.40;57.80
38910;DHT22;24676;51.360;12.354;2023-06-24T05:29:53;28.80;57.00
38910;DHT22;24676;51.360;12.354;2023-06-24T05:32:38;29.70;53.70
38910;DHT22;24676;51.360;12.354;2023-06-24T05:35:22;29.10;54.50
38910;DHT22;24676;51.360;12.354;2023-06-24T05:38:07;27.70;56.30
38910;DHT22;24676;51.360;12.354;2023-06-24T05:40:51;26.90;60.10
38910;DHT22;24676;51.360;12.354;2023-06-24T05:43:35;27.40;60.70
38910;DHT22;24676;51.360;12.354;2023-06-24T05:46:19;27.90;59.00
38910;DHT22;24676;51.360;12.354;2023-06-24T05:49:04;28.60;55.90
38910;DHT22;24676;51.360;12.354;2023-06-24T05:51:48;28.80;55.50
38910;DHT22;24676;51.360;12.354;2023-06-24T05:54:32;28.70;56.30
38910;DHT22;24676;51.360;12.354;2023-06-24T05:57:16;27.50;56.90
38910;DHT22;24676;51.360;12.354;2023-06-24T06:00:00;25.80;63.30
38910;DHT22;24676;51.360;12.354;2023-06-24T06:02:44;25.10;70.30
38910;DHT22;24676;51.360;12.354;2023-06-24T06:05:29;25.40;69.70
38910;DHT22;24676;51.360;12.354;2023-06-24T06:08:13;24.80;70.30
38910;DHT22;24676;51.360;12.354;2023-06-24T06:10:57;25.40;76.10
38910;DHT22;24676;51.360;12.354;2023-06-24T06:13:42;26.60;68.60
38910;DHT22;24676;51.360;12.354;2023-06-24T06:16:26;26.80;65.20
38910;DHT22;24676;51.360;12.354;2023-06-24T06:19:12;26.20;65.30
38910;DHT22;24676;51.360;12.354;2023-06-24T06:21:56;25.40;69.30
38910;DHT22;24676;51.360;12.354;2023-06-24T06:24:40;25.20;71.00
38910;DHT22;24676;51.360;12.354;2023-06-24T06:27:24;24.50;75.70
38910;DHT22;24676;51.360;12.354;2023-06-24T06:30:09;24.60;80.10
38910;DHT22;24676;51.360;12.354;2023-06-24T06:32:53;24.10;79.00
38910;DHT22;24676;51.360;12.354;2023-06-24T06:35:37;23.20;86.70
38910;DHT22;24676;51.360;12.354;2023-06-24T06:38:22;22.40;94.60
38910;DHT22;24676;51.360;12.354;2023-06-24T06:41:06;21.70;99.90
38910;DHT22;24676;51.360;12.354;2023-06-24T06:43:53;21.00;99.90
38910;DHT22;24676;51.360;12.354;2023-06-24T06:46:38;20.50;99.90
38910;DHT22;24676;51.360;12.354;2023-06-24T06:49:22;20.40;99.90
38910;DHT22;24676;51.360;12.354;2023-06-24T06:52:07;20.40;99.90
38910;DHT22;24676;51.360;12.354;2023-06-24T06:54:51;20.70;99.90
38910;DHT22;24676;51.360;12.354;2023-06-24T06:57:35;20.70;99.90
38910;DHT22;24676;51.360;12.354;2023-06-24T07:00:19;20.40;99.90
38910;DHT22;24676;51.360;12.354;2023-06-24T07:03:04;20.60;99.90
38910;DHT22;24676;51.360;12.354;2023-06-24T07:05:48;20.60;99.90
38910;DHT22;24676;51.360;12.354;2023-06-24T07:08:33;20.90;99.90
38910;DHT22;24676;51.360;12.354;2023-06-24T07:11:17;21.50;99.90
38910;DHT22;24676;51.360;12.354;2023-06-24T07:14:02;23.60;99.90
38910;DHT22;24676;51.360;12.354;2023-06-24T07:16:46;23.60;97.30
38910;DHT22;24676;51.360;12.354;2023-06-24T07:19:30;23.50;99.90
38910;DHT22;24676;51.360;12.354;2023-06-24T07:22:15;23.40;99.90
38910;DHT22;24676;51.360;12.354;2023-06-24T07:24:59;23.40;99.90
38910;DHT22;24676;51.360;12.354;2023-06-24T07:27:44;24.40;98.40
38910;DHT22;24676;51.360;12.354;2023-06-24T07:30:29;25.00;92.20
38910;DHT22;24676;51.360;12.354;2023-06-24T07:33:13;24.20;94.80
38910;DHT22;24676;51.360;12.354;2023-06-24T07:35:57;23.50;95.70
38910;DHT22;24676;51.360;12.354;2023-06-24T07:38:42;22.80;99.90
38910;DHT22;24676;51.360;12.354;2023-06-24T07:41:26;22.30;99.90
38910;DHT22;24676;51.360;12.354;2023-06-24T07:44:10;22.10;99.90
38910;DHT22;24676;51.360;12.354;2023-06-24T07:46:54;22.40;99.90
38910;DHT22;24676;51.360;12.354;2023-06-24T07:49:39;22.70;99.90
38910;DHT22;24676;51.360;12.354;2023-06-24T07:52:23;22.90;99.90
38910;DHT22;24676;51.360;12.354;2023-06-24T07:55:08;25.10;96.90
38910;DHT22;24676;51.360;12.354;2023-06-24T07:57:52;28.40;73.20
38910;DHT22;24676;51.360;12.354;2023-06-24T08:00:36;29.70;57.90
38910;DHT22;24676;51.360;12.354;2023-06-24T08:03:20;27.80;59.50
38910;DHT22;24676;51.360;12.354;2023-06-24T08:06:05;26.00;66.60
38910;DHT22;24676;51.360;12.354;2023-06-24T08:08:50;25.00;79.60
38910;DHT22;24676;51.360;12.354;2023-06-24T08:11:34;27.50;75.10
38910;DHT22;24676;51.360;12.354;2023-06-24T08:14:18;29.80;58.00
38910;DHT22;24676;51.360;12.354;2023-06-24T08:17:03;31.30;54.50
38910;DHT22;24676;51.360;12.354;2023-06-24T08:19:48;32.10;50.40
38910;DHT22;24676;51.360;12.354;2023-06-24T08:22:32;31.10;48.40
38910;DHT22;24676;51.360;12.354;2023-06-24T08:25:17;30.20;53.10
38910;DHT22;24676;51.360;12.354;2023-06-24T08:28:01;29.60;55.70
38910;DHT22;24676;51.360;12.354;2023-06-24T08:30:46;30.10;52.90
38910;DHT22;24676;51.360;12.354;2023-06-24T08:33:30;29.50;51.10
38910;DHT22;24676;51.360;12.354;2023-06-24T08:36:14;28.20;53.20
38910;DHT22;24676;51.360;12.354;2023-06-24T08:38:59;26.90;56.20
38910;DHT22;24676;51.360;12.354;2023-06-24T08:41:43;26.90;58.80
38910;DHT22;24676;51.360;12.354;2023-06-24T08:44:27;27.00;59.60
38910;DHT22;24676;51.360;12.354;2023-06-24T08:47:11;27.20;58.70
38910;DHT22;24676;51.360;12.354;2023-06-24T08:50:18;27.10;59.30
38910;DHT22;24676;51.360;12.354;2023-06-24T08:53:07;26.30;58.80
38910;DHT22;24676;51.360;12.354;2023-06-24T08:55:54;25.70;62.70
38910;DHT22;24676;51.360;12.354;2023-06-24T08:58:40;25.60;65.30
38910;DHT22;24676;51.360;12.354;2023-06-24T09:01:25;26.00;63.50
38910;DHT22;24676;51.360;12.354;2023-06-24T09:04:11;26.20;61.70
38910;DHT22;24676;51.360;12.354;2023-06-24T09:06:56;26.00;62.50
38910;DHT22;24676;51.360;12.354;2023-06-24T09:09:44;26.30;59.80
38910;DHT22;24676;51.360;12.354;2023-06-24T09:12:32;26.50;60.50
38910;DHT22;24676;51.360;12.354;2023-06-24T09:15:16;26.60;58.00
38910;DHT22;24676;51.360;12.354;2023-06-24T09:18:04;26.20;58.70
38910;DHT22;24676;51.360;12.354;2023-06-24T09:20:48;25.90;62.90
38910;DHT22;24676;51.360;12.354;2023-06-24T09:23:39;26.00;62.80
38910;DHT22;24676;51.360;12.354;2023-06-24T09:26:24;26.50;57.60
38910;DHT22;24676;51.360;12.354;2023-06-24T09:29:09;26.90;58.70
38910;DHT22;24676;51.360;12.354;2023-06-24T09:31:53;27.20;60.00
38910;DHT22;24676;51.360;12.354;2023-06-24T09:34:38;27.50;55.90
38910;DHT22;24676;51.360;12.354;2023-06-24T09:37:23;27.20;56.90
38910;DHT22;24676;51.360;12.354;2023-06-24T09:40:09;26.70;57.90
38910;DHT22;24676;51.360;12.354;2023-06-24T09:42:55;26.80;59.20
38910;DHT22;24676;51.360;12.354;2023-06-24T09:45:41;27.20;57.70
38910;DHT22;24676;51.360;12.354;2023-06-24T09:48:25;27.50;55.70
38910;DHT22;24676;51.360;12.354;2023-06-24T09:51:09;27.50;55.70
38910;DHT22;24676;51.360;12.354;2023-06-24T09:53:56;27.60;56.40
38910;DHT22;24676;51.360;12.354;2023-06-24T09:56:51;27.40;57.10
38910;DHT22;24676;51.360;12.354;2023-06-24T09:59:37;27.10;55.70
38910;DHT22;24676;51.360;12.354;2023-06-24T10:02:22;27.10;55.60
38910;DHT22;24676;51.360;12.354;2023-06-24T10:05:07;27.40;55.40
38910;DHT22;24676;51.360;12.354;2023-06-24T10:07:51;27.40;55.90
38910;DHT22;24676;51.360;12.354;2023-06-24T10:10:36;27.60;55.00
38910;DHT22;24676;51.360;12.354;2023-06-24T10:13:20;27.70;55.70
38910;DHT22;24676;51.360;12.354;2023-06-24T10:16:05;27.70;56.90
38910;DHT22;24676;51.360;12.354;2023-06-24T10:18:49;28.00;55.80
38910;DHT22;24676;51.360;12.354;2023-06-24T10:21:57;29.00;52.40
38910;DHT22;24676;51.360;12.354;2023-06-24T10:24:42;30.10;49.60
38910;DHT22;24676;51.360;12.354;2023-06-24T10:27:26;31.30;46.30
38910;DHT22;24676;51.360;12.354;2023-06-24T10:30:18;32.10;45.00
38910;DHT22;24676;51.360;12.354;2023-06-24T10:33:10;33.10;43.60
38910;DHT22;24676;51.360;12.354;2023-06-24T10:35:55;33.20;41.80
38910;DHT22;24676;51.360;12.354;2023-06-24T10:38:39;33.60;40.00
38910;DHT22;24676;51.360;12.354;2023-06-24T10:41:25;33.50;42.20
38910;DHT22;24676;51.360;12.354;2023-06-24T10:44:15;33.20;42.70
38910;DHT22;24676;51.360;12.354;2023-06-24T10:47:00;33.10;40.80
38910;DHT22;24676;51.360;12.354;2023-06-24T10:49:48;32.90;43.80
38910;DHT22;24676;51.360;12.354;2023-06-24T10:52:36;32.60;43.50
38910;DHT22;24676;51.360;12.354;2023-06-24T10:55:22;32.80;40.20
38910;DHT22;24676;51.360;12.354;2023-06-24T10:58:09;33.00;41.90
38910;DHT22;24676;51.360;12.354;2023-06-24T11:01:06;32.90;39.60
38910;DHT22;24676;51.360;12.354;2023-06-24T11:03:51;32.50;39.80
38910;DHT22;24676;51.360;12.354;2023-06-24T11:06:36;32.30;40.90
38910;DHT22;24676;51.360;12.354;2023-06-24T11:09:20;32.10;41.30
38910;DHT22;24676;51.360;12.354;2023-06-24T11:12:05;32.10;41.20
38910;DHT22;24676;51.360;12.354;2023-06-24T11:14:50;32.30;40.80
38910;DHT22;24676;51.360;12.354;2023-06-24T11:17:35;32.10;42.10
38910;DHT22;24676;51.360;12.354;2023-06-24T11:20:19;32.70;40.20
38910;DHT22;24676;51.360;12.354;2023-06-24T11:23:07;32.60;40.00
38910;DHT22;24676;51.360;12.354;2023-06-24T11:25:52;32.60;40.30
38910;DHT22;24676;51.360;12.354;2023-06-24T11:28:37;32.60;39.10
38910;DHT22;24676;51.360;12.354;2023-06-24T11:31:28;33.00;39.30
38910;DHT22;24676;51.360;12.354;2023-06-24T11:34:12;33.40;40.50
38910;DHT22;24676;51.360;12.354;2023-06-24T11:36:56;34.50;37.50
38910;DHT22;24676;51.360;12.354;2023-06-24T11:39:41;34.70;39.20
38910;DHT22;24676;51.360;12.354;2023-06-24T11:42:25;35.10;35.80
38910;DHT22;24676;51.360;12.354;2023-06-24T11:45:12;35.30;35.70
38910;DHT22;24676;51.360;12.354;2023-06-24T11:48:03;36.60;32.90
38910;DHT22;24676;51.360;12.354;2023-06-24T11:50:55;37.10;32.70
38910;DHT22;24676;51.360;12.354;2023-06-24T11:53:43;37.30;31.50
38910;DHT22;24676;51.360;12.354;2023-06-24T11:56:41;36.90;34.20
38910;DHT22;24676;51.360;12.354;2023-06-24T11:59:27;36.60;32.00
38910;DHT22;24676;51.360;12.354;2023-06-24T12:02:14;37.40;29.60
38910;DHT22;24676;51.360;12.354;2023-06-24T12:04:58;37.50;32.30
38910;DHT22;24676;51.360;12.354;2023-06-24T12:07:42;37.60;31.50
38910;DHT22;24676;51.360;12.354;2023-06-24T12:10:29;36.70;32.30
38910;DHT22;24676;51.360;12.354;2023-06-24T12:13:16;36.30;32.20
38910;DHT22;24676;51.360;12.354;2023-06-24T12:16:01;36.10;31.80
38910;DHT22;24676;51.360;12.354;2023-06-24T12:18:45;35.90;32.30
38910;DHT22;24676;51.360;12.354;2023-06-24T12:21:29;36.40;31.40
38910;DHT22;24676;51.360;12.354;2023-06-24T12:24:13;36.90;30.10
38910;DHT22;24676;51.360;12.354;2023-06-24T12:26:58;36.60;31.50
38910;DHT22;24676;51.360;12.354;2023-06-24T12:29:42;36.60;30.90
38910;DHT22;24676;51.360;12.354;2023-06-24T12:32:27;36.50;31.60
38910;DHT22;24676;51.360;12.354;2023-06-24T12:35:12;36.80;31.30
38910;DHT22;24676;51.360;12.354;2023-06-24T12:37:56;37.00;32.10
38910;DHT22;24676;51.360;12.354;2023-06-24T12:40:41;37.10;30.50
38910;DHT22;24676;51.360;12.354;2023-06-24T12:43:25;36.50;31.60
38910;DHT22;24676;51.360;12.354;2023-06-24T12:46:09;36.40;33.00
38910;DHT22;24676;51.360;12.354;2023-06-24T12:48:53;35.90;32.80
38910;DHT22;24676;51.360;12.354;2023-06-24T12:51:38;35.30;34.90
38910;DHT22;24676;51.360;12.354;2023-06-24T12:54:22;34.40;35.90
38910;DHT22;24676;51.360;12.354;2023-06-24T12:57:07;32.80;36.80
38910;DHT22;24676;51.360;12.354;2023-06-24T12:59:50;31.40;39.00
38910;DHT22;24676;51.360;12.354;2023-06-24T13:02:35;30.30;39.60
38910;DHT22;24676;51.360;12.354;2023-06-24T13:05:20;29.70;41.10
38910;DHT22;24676;51.360;12.354;2023-06-24T13:08:04;29.30;42.10
38910;DHT22;24676;51.360;12.354;2023-06-24T13:10:50;28.90;43.50
38910;DHT22;24676;51.360;12.354;2023-06-24T13:13:34;28.60;42.50
38910;DHT22;24676;51.360;12.354;2023-06-24T13:16:19;28.30;43.60
38910;DHT22;24676;51.360;12.354;2023-06-24T13:19:03;28.10;44.80
38910;DHT22;24676;51.360;12.354;2023-06-24T13:21:47;28.00;44.20
38910;DHT22;24676;51.360;12.354;2023-06-24T13:24:31;27.80;44.60
38910;DHT22;24676;51.360;12.354;2023-06-24T13:27:16;27.70;46.60
38910;DHT22;24676;51.360;12.354;2023-06-24T13:30:01;27.70;44.80
38910;DHT22;24676;51.360;12.354;2023-06-24T13:32:46;27.70;45.20
38910;DHT22;24676;51.360;12.354;2023-06-24T13:35:31;27.80;45.50
38910;DHT22;24676;51.360;12.354;2023-06-24T13:38:15;27.90;45.50
38910;DHT22;24676;51.360;12.354;2023-06-24T13:41:00;28.00;43.40
38910;DHT22;24676;51.360;12.354;2023-06-24T13:43:44;27.90;44.50
38910;DHT22;24676;51.360;12.354;2023-06-24T13:46:30;27.90;42.70
38910;DHT22;24676;51.360;12.354;2023-06-24T13:49:14;27.70;43.90
38910;DHT22;24676;51.360;12.354;2023-06-24T13:51:59;27.50;44.80
38910;DHT22;24676;51.360;12.354;2023-06-24T13:54:43;27.50;45.10
38910;DHT22;24676;51.360;12.354;2023-06-24T13:57:28;27.40;46.20
38910;DHT22;24676;51.360;12.354;2023-06-24T14:00:13;27.40;45.50
38910;DHT22;24676;51.360;12.354;2023-06-24T14:02:57;27.40;45.80
38910;DHT22;24676;51.360;12.354;2023-06-24T14:05:42;27.40;44.30
38910;DHT22;24676;51.360;12.354;2023-06-24T14:08:29;27.30;45.10
38910;DHT22;24676;51.360;12.354;2023-06-24T14:11:14;27.30;45.40
38910;DHT22;24676;51.360;12.354;2023-06-24T14:13:58;27.20;44.20
38910;DHT22;24676;51.360;12.354;2023-06-24T14:16:42;27.20;45.30
38910;DHT22;24676;51.360;12.354;2023-06-24T14:19:27;27.10;44.80
38910;DHT22;24676;51.360;12.354;2023-06-24T14:22:11;27.00;45.20
38910;DHT22;24676;51.360;12.354;2023-06-24T14:24:56;27.00;45.80
38910;DHT22;24676;51.360;12.354;2023-06-24T14:27:40;27.00;45.60
38910;DHT22;24676;51.360;12.354;2023-06-24T14:30:24;27.00;45.40
38910;DHT22;24676;51.360;12.354;2023-06-24T14:33:09;26.90;46.70
38910;DHT22;24676;51.360;12.354;2023-06-24T14:35:53;26.90;46.00
38910;DHT22;24676;51.360;12.354;2023-06-24T14:38:38;26.90;46.00
38910;DHT22;24676;51.360;12.354;2023-06-24T14:41:22;26.90;45.30
38910;DHT22;24676;51.360;12.354;2023-06-24T14:44:07;26.80;45.30
38910;DHT22;24676;51.360;12.354;2023-06-24T14:46:51;26.80;45.70
38910;DHT22;24676;51.360;12.354;2023-06-24T14:49:35;26.80;45.20
38910;DHT22;24676;51.360;12.354;2023-06-24T14:52:19;26.70;45.00
38910;DHT22;24676;51.360;12.354;2023-06-24T14:55:04;26.70;45.30
38910;DHT22;24676;51.360;12.354;2023-06-24T14:57:48;26.60;45.20
38910;DHT22;24676;51.360;12.354;2023-06-24T15:00:33;26.60;45.80
38910;DHT22;24676;51.360;12.354;2023-06-24T15:03:16;26.60;46.50
38910;DHT22;24676;51.360;12.354;2023-06-24T15:06:00;26.60;47.30
38910;DHT22;24676;51.360;12.354;2023-06-24T15:08:44;26.60;47.60
38910;DHT22;24676;51.360;12.354;2023-06-24T15:11:29;26.60;47.20
38910;DHT22;24676;51.360;12.354;2023-06-24T15:14:13;26.60;47.60
38910;DHT22;24676;51.360;12.354;2023-06-24T15:16:58;26.60;46.80
38910;DHT22;24676;51.360;12.354;2023-06-24T15:19:42;26.50;46.90
38910;DHT22;24676;51.360;12.354;2023-06-24T15:22:26;26.40;47.40
38910;DHT22;24676;51.360;12.354;2023-06-24T15:25:11;26.30;47.00
38910;DHT22;24676;51.360;12.354;2023-06-24T15:27:57;26.10;46.80
38910;DHT22;24676;51.360;12.354;2023-06-24T15:30:42;26.00;47.80
38910;DHT22;24676;51.360;12.354;2023-06-24T15:33:26;26.00;48.60
38910;DHT22;24676;51.360;12.354;2023-06-24T15:36:11;26.00;48.20
38910;DHT22;24676;51.360;12.354;2023-06-24T15:38:55;26.00;48.50
38910;DHT22;24676;51.360;12.354;2023-06-24T15:41:40;26.00;48.20
38910;DHT22;24676;51.360;12.354;2023-06-24T15:44:29;26.00;47.40
38910;DHT22;24676;51.360;12.354;2023-06-24T15:47:14;26.00;48.30
38910;DHT22;24676;51.360;12.354;2023-06-24T15:49:59;25.90;48.40
38910;DHT22;24676;51.360;12.354;2023-06-24T15:52:44;25.80;48.40
38910;DHT22;24676;51.360;12.354;2023-06-24T15:55:28;25.80;48.70
38910;DHT22;24676;51.360;12.354;2023-06-24T15:58:13;25.70;48.60
38910;DHT22;24676;51.360;12.354;2023-06-24T16:00:57;25.70;48.70
38910;DHT22;24676;51.360;12.354;2023-06-24T16:03:41;25.70;49.50
38910;DHT22;24676;51.360;12.354;2023-06-24T16:06:25;25.70;49.20
38910;DHT22;24676;51.360;12.354;2023-06-24T16:09:11;25.70;49.80
38910;DHT22;24676;51.360;12.354;2023-06-24T16:11:55;25.60;48.80
38910;DHT22;24676;51.360;12.354;2023-06-24T16:14:39;25.60;48.00
38910;DHT22;24676;51.360;12.354;2023-06-24T16:17:23;25.50;48.00
38910;DHT22;24676;51.360;12.354;2023-06-24T16:20:07;25.50;48.30
38910;DHT22;24676;51.360;12.354;2023-06-24T16:22:52;25.50;47.90
38910;DHT22;24676;51.360;12.354;2023-06-24T16:25:36;25.50;47.50
38910;DHT22;24676;51.360;12.354;2023-06-24T16:28:20;25.50;48.00
38910;DHT22;24676;51.360;12.354;2023-06-24T16:31:04;25.50;49.30
38910;DHT22;24676;51.360;12.354;2023-06-24T16:33:48;25.40;49.50
38910;DHT22;24676;51.360;12.354;2023-06-24T16:36:33;25.50;49.80
38910;DHT22;24676;51.360;12.354;2023-06-24T16:39:17;25.40;49.80
38910;DHT22;24676;51.360;12.354;2023-06-24T16:42:03;25.40;50.20
38910;DHT22;24676;51.360;12.354;2023-06-24T16:44:47;25.30;50.40
38910;DHT22;24676;51.360;12.354;2023-06-24T16:47:31;25.30;50.70
38910;DHT22;24676;51.360;12.354;2023-06-24T16:50:15;25.20;50.60
38910;DHT22;24676;51.360;12.354;2023-06-24T16:53:00;25.20;50.80
38910;DHT22;24676;51.360;12.354;2023-06-24T16:55:45;25.20;50.50
38910;DHT22;24676;51.360;12.354;2023-06-24T16:58:30;25.20;50.50
38910;DHT22;24676;51.360;12.354;2023-06-24T17:01:14;25.10;50.30
38910;DHT22;24676;51.360;12.354;2023-06-24T17:03:58;25.10;51.00
38910;DHT22;24676;51.360;12.354;2023-06-24T17:06:42;25.10;51.10
38910;DHT22;24676;51.360;12.354;2023-06-24T17:09:27;25.00;51.40
38910;DHT22;24676;51.360;12.354;2023-06-24T17:12:11;24.90;52.10